createdAt,value
2024-01-09T00:02:37.041Z,96.13
2024-01-09T00:07:40.439Z,95.86
2024-01-09T00:12:42.547Z,95.57
2024-01-09T00:17:44.915Z,95.83
2024-01-09T00:22:48.797Z,95.03
2024-01-09T00:27:50.966Z,95.69
2024-01-09T00:32:53.275Z,94.96
2024-01-09T00:37:56.806Z,95.53
2024-01-09T00:42:58.836Z,95.71
2024-01-09T00:48:01.028Z,95.16
2024-01-09T00:53:06.052Z,95.28
2024-01-09T00:58:08.163Z,94.77
2024-01-09T01:03:10.244Z,95.30
2024-01-09T01:08:13.706Z,95.23
2024-01-09T01:13:15.766Z,94.86
2024-01-09T01:18:17.958Z,94.59
2024-01-09T01:23:21.666Z,95.39
2024-01-09T01:28:23.798Z,95.59
2024-01-09T01:33:26.098Z,94.88
2024-01-09T01:38:29.744Z,94.77
2024-01-09T01:43:31.870Z,94.88
2024-01-09T01:48:35.292Z,94.71
2024-01-09T01:53:39.283Z,94.93
2024-01-09T01:58:41.866Z,93.88
2024-01-09T02:03:44.097Z,93.49
2024-01-09T02:08:48.586Z,93.99
2024-01-09T02:13:50.750Z,93.55
2024-01-09T02:18:52.985Z,93.41
2024-01-09T02:23:56.492Z,94.60
2024-01-09T02:29:05.153Z,93.85
2024-01-09T02:34:11.204Z,92.76
2024-01-09T02:39:13.603Z,94.08
2024-01-09T02:44:15.962Z,93.07
2024-01-09T02:49:19.530Z,93.78
2024-01-09T02:54:21.614Z,92.70
2024-01-09T02:59:25.814Z,93.17
2024-01-09T03:04:29.376Z,93.39
2024-01-09T03:09:34.480Z,92.93
2024-01-09T03:14:37.657Z,93.14
2024-01-09T03:19:41.250Z,92.24
2024-01-09T03:24:43.283Z,92.98
2024-01-09T03:29:45.368Z,93.02
2024-01-09T03:34:48.767Z,92.58
2024-01-09T03:39:50.804Z,93.59
2024-01-09T03:44:52.843Z,92.82
2024-01-09T03:49:56.305Z,93.28
2024-01-09T03:54:58.361Z,92.63
2024-01-09T04:00:00.458Z,92.95
2024-01-09T04:05:04.361Z,93.15
2024-01-09T04:10:07.162Z,92.06
2024-01-09T04:15:10.093Z,92.10
2024-01-09T04:20:14.262Z,92.72
2024-01-09T04:25:16.512Z,91.81
2024-01-09T04:30:18.581Z,91.92
2024-01-09T04:35:22.087Z,91.42
2024-01-09T04:40:24.142Z,91.27
2024-01-09T04:45:26.260Z,91.52
2024-01-09T04:50:29.747Z,91.55
2024-01-09T04:55:31.927Z,91.38
2024-01-09T05:00:34.018Z,92.22
2024-01-09T05:05:37.672Z,92.59
2024-01-09T05:10:40.025Z,92.42
2024-01-09T05:15:42.109Z,92.77
2024-01-09T05:20:45.584Z,92.38
2024-01-09T05:25:48.053Z,91.95
2024-01-09T05:30:50.318Z,92.38
2024-01-09T05:35:53.780Z,91.56
2024-01-09T05:40:55.871Z,92.29
2024-01-09T05:45:57.917Z,91.71
2024-01-09T05:51:01.377Z,92.46
2024-01-09T05:56:04.145Z,92.54
2024-01-09T06:01:06.220Z,92.53
2024-01-09T06:06:09.738Z,91.73
2024-01-09T06:11:11.901Z,92.43
2024-01-09T06:16:13.986Z,91.89
2024-01-09T06:21:18.433Z,91.22
2024-01-09T06:28:44.697Z,91.35
2024-01-09T06:33:46.924Z,90.95
2024-01-09T06:38:49.259Z,91.48
2024-01-09T06:43:52.782Z,91.43
2024-01-09T06:48:54.938Z,91.64
2024-01-09T06:53:57.122Z,91.23
2024-01-09T06:59:00.639Z,90.90
2024-01-09T07:04:03.037Z,91.39
2024-01-09T07:09:05.247Z,91.23
2024-01-09T07:14:11.264Z,90.91
2024-01-09T07:19:13.601Z,90.60
2024-01-09T07:24:16.208Z,90.24
2024-01-09T07:29:20.681Z,90.47
2024-01-09T07:34:22.899Z,90.07
2024-01-09T07:39:25.194Z,89.98
2024-01-09T07:44:28.652Z,89.93
2024-01-09T07:49:31.328Z,91.05
2024-01-09T07:54:33.595Z,91.09
2024-01-09T07:59:37.138Z,92.06
2024-01-09T08:04:40.516Z,91.50
2024-01-09T08:09:42.587Z,90.84
2024-01-09T08:14:46.161Z,91.00
2024-01-09T08:19:48.362Z,91.61
2024-01-09T08:24:50.474Z,92.21
2024-01-09T08:29:53.929Z,91.86
2024-01-09T08:34:56.983Z,92.22
2024-01-09T08:39:59.491Z,91.16
2024-01-09T08:45:03.104Z,91.57
2024-01-09T08:50:06.147Z,90.76
2024-01-09T08:55:08.673Z,91.49
2024-01-09T09:00:14.409Z,90.78
2024-01-09T09:05:16.567Z,91.69
2024-01-09T09:10:18.671Z,91.43
2024-01-09T09:15:22.064Z,91.52
2024-01-09T09:20:24.226Z,91.38
2024-01-09T09:25:26.289Z,91.06
2024-01-09T09:30:29.841Z,91.18
2024-01-09T09:35:32.563Z,91.15
2024-01-09T09:40:34.946Z,91.06
2024-01-09T09:45:39.322Z,91.12
2024-01-09T09:50:43.334Z,91.33
2024-01-09T09:55:46.921Z,91.17
2024-01-09T10:00:52.967Z,91.45
2024-01-09T10:05:56.954Z,91.00
2024-01-09T10:10:59.139Z,90.68
2024-01-09T10:16:03.977Z,90.86
2024-01-09T10:21:06.569Z,91.29
2024-01-09T10:26:11.180Z,90.94
2024-01-09T10:31:14.641Z,91.07
2024-01-09T10:36:17.199Z,90.44
2024-01-09T10:41:22.590Z,91.08
2024-01-09T10:46:27.994Z,91.30
2024-01-09T10:51:31.366Z,91.36
2024-01-09T10:56:35.195Z,90.92
2024-01-09T11:01:38.648Z,91.45
2024-01-09T11:06:46.106Z,90.74
2024-01-09T11:11:50.349Z,91.75
2024-01-09T11:16:55.284Z,91.27
2024-01-09T11:21:57.489Z,91.53
2024-01-09T11:27:13.533Z,92.02
2024-01-09T11:32:18.281Z,91.98
2024-01-09T11:37:23.145Z,91.13
2024-01-09T11:42:26.495Z,90.98
2024-01-09T11:47:30.382Z,91.82
2024-01-09T11:52:32.883Z,91.99
2024-01-09T11:57:35.206Z,91.93
2024-01-09T12:02:39.079Z,92.22
2024-01-09T12:07:41.760Z,91.95
2024-01-09T12:12:43.814Z,92.29
2024-01-09T12:17:57.305Z,91.98
2024-01-09T12:22:59.890Z,91.79
2024-01-09T12:28:03.374Z,91.74
2024-01-09T12:33:07.093Z,91.62
2024-01-09T12:38:09.608Z,91.70
2024-01-09T12:43:12.291Z,92.94
2024-01-09T12:48:16.148Z,92.08
2024-01-09T12:53:18.381Z,93.01
2024-01-09T12:58:20.536Z,92.69
2024-01-09T13:03:24.129Z,92.59
2024-01-09T13:08:26.339Z,92.09
2024-01-09T13:13:28.459Z,93.02
2024-01-09T13:18:32.112Z,92.45
2024-01-09T13:30:42.773Z,92.20
2024-01-09T13:34:04.479Z,92.06
2024-01-09T13:39:10.929Z,92.22
2024-01-09T13:44:13.389Z,92.37
2024-01-09T13:49:16.934Z,91.73
2024-01-09T13:54:19.113Z,91.75
2024-01-09T13:59:22.680Z,91.94
2024-01-09T14:04:26.253Z,91.78
2024-01-09T14:09:28.370Z,91.40
2024-01-09T14:14:30.424Z,92.01
2024-01-09T14:19:34.881Z,91.80
2024-01-09T14:24:37.920Z,92.51
2024-01-09T14:29:40.022Z,92.59
2024-01-09T14:34:43.712Z,92.32
2024-01-09T14:39:45.858Z,91.87
2024-01-09T14:44:48.061Z,91.76
2024-01-09T14:49:51.656Z,91.80
2024-01-09T14:55:09.905Z,91.80
2024-01-09T15:00:12.829Z,91.48
2024-01-09T15:05:20.622Z,91.60
2024-01-09T15:10:22.786Z,91.55
2024-01-09T15:15:24.945Z,90.94
2024-01-09T15:20:28.397Z,91.13
2024-01-09T15:25:30.544Z,91.87
2024-01-09T15:30:32.811Z,91.37
2024-01-09T15:35:36.736Z,91.73
2024-01-09T15:40:38.893Z,92.21
2024-01-09T15:45:43.146Z,92.11
2024-01-09T15:50:46.584Z,91.69
2024-01-09T15:55:48.754Z,91.25
2024-01-09T16:00:50.860Z,90.98
2024-01-09T16:05:55.031Z,90.30
2024-01-09T16:10:57.172Z,91.05
2024-01-09T16:16:04.259Z,91.74
2024-01-09T16:21:07.744Z,92.01
2024-01-09T16:26:10.402Z,90.57
2024-01-09T16:31:12.916Z,91.15
2024-01-09T16:36:16.555Z,91.02
2024-01-09T16:41:20.190Z,90.67
2024-01-09T16:46:22.304Z,90.81
2024-01-09T16:51:25.956Z,91.46
2024-01-09T16:56:28.365Z,91.18
2024-01-09T17:01:31.133Z,91.02
2024-01-09T17:06:34.570Z,91.48
2024-01-09T17:11:39.759Z,90.96
2024-01-09T17:16:45.868Z,91.56
2024-01-09T17:21:49.344Z,92.31
2024-01-09T17:26:51.490Z,91.98
2024-01-09T17:31:53.655Z,91.59
2024-01-09T17:36:57.112Z,91.64
2024-01-09T17:41:59.211Z,90.97
2024-01-09T17:47:01.355Z,91.11
2024-01-09T17:52:05.326Z,91.93
2024-01-09T17:57:07.515Z,91.55
2024-01-09T18:02:09.697Z,90.86
2024-01-09T18:07:13.166Z,90.56
2024-01-09T18:12:15.542Z,91.06
2024-01-09T18:17:17.793Z,90.57
2024-01-09T18:22:21.200Z,91.36
2024-01-09T18:27:23.792Z,91.44
2024-01-09T18:32:30.792Z,90.76
2024-01-09T18:37:36.577Z,91.25
2024-01-09T18:42:39.013Z,91.03
2024-01-09T18:47:41.815Z,90.89
2024-01-09T18:52:45.334Z,90.89
2024-01-09T18:57:47.507Z,91.50
2024-01-09T19:02:49.601Z,91.31
2024-01-09T19:07:53.265Z,91.80
2024-01-09T19:12:55.407Z,91.59
2024-01-09T19:17:58.490Z,91.13
2024-01-09T19:23:02.146Z,90.90
2024-01-09T19:28:04.925Z,90.74
2024-01-09T19:33:07.129Z,91.77
2024-01-09T19:38:11.882Z,91.73
2024-01-09T19:43:14.909Z,91.61
2024-01-09T19:48:21.597Z,91.22
2024-01-09T19:53:25.463Z,90.88
2024-01-09T19:58:27.636Z,91.73
2024-01-09T20:03:29.790Z,90.16
2024-01-09T20:08:33.615Z,91.27
2024-01-09T20:13:35.777Z,90.03
2024-01-09T20:18:37.914Z,90.51
2024-01-09T20:23:41.502Z,90.84
2024-01-09T20:28:43.570Z,90.55
2024-01-09T20:33:45.826Z,89.89
2024-01-09T20:38:49.317Z,90.19
2024-01-09T20:43:51.518Z,90.78
2024-01-09T20:48:53.635Z,91.06
2024-01-09T20:53:58.580Z,90.24
2024-01-09T20:59:00.805Z,91.29
2024-01-09T21:04:05.469Z,91.06
2024-01-09T21:09:12.526Z,91.01
2024-01-09T21:14:14.769Z,91.20
2024-01-09T21:19:17.863Z,91.35
2024-01-09T21:24:21.404Z,90.33
2024-01-09T21:29:23.517Z,89.92
2024-01-09T21:34:25.653Z,90.14
2024-01-09T21:39:29.077Z,91.15
2024-01-09T21:44:31.959Z,89.77
2024-01-09T21:49:34.022Z,89.98
2024-01-09T21:54:41.530Z,90.00
2024-01-09T21:59:43.725Z,91.04
2024-01-09T22:04:45.795Z,90.51
2024-01-09T22:09:49.291Z,90.51
2024-01-09T22:14:51.344Z,91.25
2024-01-09T22:19:53.451Z,90.15
2024-01-09T22:24:57.555Z,90.05
2024-01-09T22:29:59.754Z,90.52
2024-01-09T22:35:01.945Z,90.96
2024-01-09T22:40:07.412Z,90.95
2024-01-09T22:45:09.986Z,91.09
2024-01-09T22:50:12.186Z,90.33
2024-01-09T22:55:15.850Z,91.73
2024-01-09T23:00:28.014Z,91.90
2024-01-09T23:05:30.464Z,91.04
2024-01-09T23:10:34.080Z,91.38
2024-01-09T23:15:36.248Z,90.29
2024-01-09T23:20:38.475Z,90.21
2024-01-09T23:25:41.955Z,90.86
2024-01-09T23:30:44.249Z,91.37
2024-01-09T23:35:46.330Z,90.93
2024-01-09T23:40:49.856Z,90.65
2024-01-09T23:45:52.102Z,90.80
2024-01-09T23:50:55.651Z,91.58
2024-01-09T23:55:59.185Z,90.72
